sensor_id;sensor_type;location;lat;lon;timestamp;temperature;humidity
2389;DHT22;1205;47.984;7.668;2022-09-17T00:01:25;14.10;99.90
2389;DHT22;1205;47.984;7.668;2022-09-17T00:03:53;14.10;99.90
2389;DHT22;1205;47.984;7.668;2022-09-17T00:06:20;14.20;99.90
2389;DHT22;1205;47.984;7.668;2022-09-17T00:08:46;14.20;99.90
2389;DHT22;1205;47.984;7.668;2022-09-17T00:11:16;14.20;99.90
2389;DHT22;1205;47.984;7.668;2022-09-17T00:13:43;14.40;99.90
2389;DHT22;1205;47.984;7.668;2022-09-17T00:16:10;14.40;99.90
2389;DHT22;1205;47.984;7.668;2022-09-17T00:18:36;14.30;99.90
2389;DHT22;1205;47.984;7.668;2022-09-17T00:21:05;14.30;99.90
2389;DHT22;1205;47.984;7.668;2022-09-17T00:23:31;14.00;99.90
2389;DHT22;1205;47.984;7.668;2022-09-17T00:25:56;14.00;99.90
2389;DHT22;1205;47.984;7.668;2022-09-17T00:28:23;14.10;99.90
2389;DHT22;1205;47.984;7.668;2022-09-17T00:30:49;14.20;99.90
2389;DHT22;1205;47.984;7.668;2022-09-17T00:33:16;14.20;99.90
2389;DHT22;1205;47.984;7.668;2022-09-17T00:35:42;14.20;99.90
2389;DHT22;1205;47.984;7.668;2022-09-17T00:38:08;14.10;99.90
2389;DHT22;1205;47.984;7.668;2022-09-17T00:40:34;14.00;99.90
2389;DHT22;1205;47.984;7.668;2022-09-17T00:43:00;14.00;99.90
2389;DHT22;1205;47.984;7.668;2022-09-17T00:45:26;14.00;99.90
2389;DHT22;1205;47.984;7.668;2022-09-17T00:47:59;13.80;99.90
2389;DHT22;1205;47.984;7.668;2022-09-17T00:50:33;13.90;99.90
2389;DHT22;1205;47.984;7.668;2022-09-17T00:53:06;13.80;99.90
2389;DHT22;1205;47.984;7.668;2022-09-17T00:56:01;13.70;99.90
2389;DHT22;1205;47.984;7.668;2022-09-17T00:58:24;13.60;99.90
2389;DHT22;1205;47.984;7.668;2022-09-17T01:00:51;13.40;99.90
2389;DHT22;1205;47.984;7.668;2022-09-17T01:03:17;13.50;99.90
2389;DHT22;1205;47.984;7.668;2022-09-17T01:11:43;13.30;99.90
2389;DHT22;1205;47.984;7.668;2022-09-17T01:14:32;13.10;99.90
2389;DHT22;1205;47.984;7.668;2022-09-17T01:31:49;13.10;99.90
2389;DHT22;1205;47.984;7.668;2022-09-17T01:37:46;13.00;99.90
2389;DHT22;1205;47.984;7.668;2022-09-17T01:45:28;13.40;99.90
2389;DHT22;1205;47.984;7.668;2022-09-17T01:48:01;13.40;99.90
2389;DHT22;1205;47.984;7.668;2022-09-17T01:50:36;13.60;99.90
2389;DHT22;1205;47.984;7.668;2022-09-17T01:53:04;13.60;99.90
2389;DHT22;1205;47.984;7.668;2022-09-17T01:55:35;13.50;99.90
2389;DHT22;1205;47.984;7.668;2022-09-17T01:58:12;13.30;99.90
2389;DHT22;1205;47.984;7.668;2022-09-17T02:00:41;13.20;99.90
2389;DHT22;1205;47.984;7.668;2022-09-17T02:05:58;13.00;99.90
2389;DHT22;1205;47.984;7.668;2022-09-17T02:08:37;13.10;99.90
2389;DHT22;1205;47.984;7.668;2022-09-17T02:11:08;13.10;99.90
2389;DHT22;1205;47.984;7.668;2022-09-17T02:13:39;13.00;99.90
2389;DHT22;1205;47.984;7.668;2022-09-17T02:16:15;13.10;99.90
2389;DHT22;1205;47.984;7.668;2022-09-17T02:18:48;13.00;99.90
2389;DHT22;1205;47.984;7.668;2022-09-17T02:21:50;13.10;99.90
2389;DHT22;1205;47.984;7.668;2022-09-17T02:27:01;13.10;99.90
2389;DHT22;1205;47.984;7.668;2022-09-17T02:29:33;13.30;99.90
2389;DHT22;1205;47.984;7.668;2022-09-17T02:31:59;13.10;99.90
2389;DHT22;1205;47.984;7.668;2022-09-17T02:34:27;13.00;99.90
2389;DHT22;1205;47.984;7.668;2022-09-17T02:36:53;12.90;99.90
2389;DHT22;1205;47.984;7.668;2022-09-17T02:39:19;12.90;99.90
2389;DHT22;1205;47.984;7.668;2022-09-17T02:55:52;13.00;99.90
2389;DHT22;1205;47.984;7.668;2022-09-17T02:58:39;12.90;99.90
2389;DHT22;1205;47.984;7.668;2022-09-17T03:01:17;13.00;99.90
2389;DHT22;1205;47.984;7.668;2022-09-17T03:03:45;13.10;99.90
2389;DHT22;1205;47.984;7.668;2022-09-17T03:06:15;13.10;99.90
2389;DHT22;1205;47.984;7.668;2022-09-17T03:08:41;13.30;99.90
2389;DHT22;1205;47.984;7.668;2022-09-17T03:11:08;13.30;99.90
2389;DHT22;1205;47.984;7.668;2022-09-17T03:13:35;13.20;99.90
2389;DHT22;1205;47.984;7.668;2022-09-17T03:16:02;13.10;99.90
2389;DHT22;1205;47.984;7.668;2022-09-17T03:18:28;13.00;99.90
2389;DHT22;1205;47.984;7.668;2022-09-17T03:20:53;13.10;99.90
2389;DHT22;1205;47.984;7.668;2022-09-17T03:23:19;13.00;99.90
2389;DHT22;1205;47.984;7.668;2022-09-17T03:25:45;12.80;99.90
2389;DHT22;1205;47.984;7.668;2022-09-17T03:28:11;12.90;99.90
2389;DHT22;1205;47.984;7.668;2022-09-17T03:30:37;12.90;99.90
2389;DHT22;1205;47.984;7.668;2022-09-17T03:33:02;12.90;99.90
2389;DHT22;1205;47.984;7.668;2022-09-17T03:35:28;12.90;99.90
2389;DHT22;1205;47.984;7.668;2022-09-17T03:37:53;13.00;99.90
2389;DHT22;1205;47.984;7.668;2022-09-17T03:40:19;13.10;99.90
2389;DHT22;1205;47.984;7.668;2022-09-17T03:42:44;13.00;99.90
2389;DHT22;1205;47.984;7.668;2022-09-17T03:45:10;13.00;99.90
2389;DHT22;1205;47.984;7.668;2022-09-17T03:47:36;13.10;99.90
2389;DHT22;1205;47.984;7.668;2022-09-17T03:50:03;13.10;99.90
2389;DHT22;1205;47.984;7.668;2022-09-17T03:52:28;13.20;99.90
2389;DHT22;1205;47.984;7.668;2022-09-17T03:54:54;13.40;99.90
2389;DHT22;1205;47.984;7.668;2022-09-17T03:57:20;13.30;99.90
2389;DHT22;1205;47.984;7.668;2022-09-17T03:59:47;13.50;99.90
2389;DHT22;1205;47.984;7.668;2022-09-17T04:02:12;13.40;99.90
2389;DHT22;1205;47.984;7.668;2022-09-17T04:04:38;13.60;99.90
2389;DHT22;1205;47.984;7.668;2022-09-17T04:07:04;13.50;99.90
2389;DHT22;1205;47.984;7.668;2022-09-17T04:09:30;13.30;99.90
2389;DHT22;1205;47.984;7.668;2022-09-17T04:11:55;13.40;99.90
2389;DHT22;1205;47.984;7.668;2022-09-17T04:14:21;13.20;99.90
2389;DHT22;1205;47.984;7.668;2022-09-17T04:16:47;13.20;99.90
2389;DHT22;1205;47.984;7.668;2022-09-17T04:19:12;13.10;99.90
2389;DHT22;1205;47.984;7.668;2022-09-17T04:21:38;13.20;99.90
2389;DHT22;1205;47.984;7.668;2022-09-17T04:24:04;13.40;99.90
2389;DHT22;1205;47.984;7.668;2022-09-17T04:26:29;13.20;99.90
2389;DHT22;1205;47.984;7.668;2022-09-17T04:28:55;13.40;99.90
2389;DHT22;1205;47.984;7.668;2022-09-17T04:31:21;13.50;99.90
2389;DHT22;1205;47.984;7.668;2022-09-17T04:33:49;13.50;99.90
2389;DHT22;1205;47.984;7.668;2022-09-17T04:36:15;13.60;99.90
2389;DHT22;1205;47.984;7.668;2022-09-17T04:38:40;13.50;99.90
2389;DHT22;1205;47.984;7.668;2022-09-17T04:41:06;13.50;99.90
2389;DHT22;1205;47.984;7.668;2022-09-17T04:43:33;13.50;99.90
2389;DHT22;1205;47.984;7.668;2022-09-17T04:45:58;13.60;99.90
2389;DHT22;1205;47.984;7.668;2022-09-17T04:48:24;13.70;99.90
2389;DHT22;1205;47.984;7.668;2022-09-17T04:50:49;13.70;99.90
2389;DHT22;1205;47.984;7.668;2022-09-17T04:53:15;13.70;99.90
2389;DHT22;1205;47.984;7.668;2022-09-17T04:55:42;13.60;99.90
2389;DHT22;1205;47.984;7.668;2022-09-17T04:58:07;13.60;99.90
2389;DHT22;1205;47.984;7.668;2022-09-17T05:00:33;13.60;99.90
2389;DHT22;1205;47.984;7.668;2022-09-17T05:02:59;13.80;99.90
2389;DHT22;1205;47.984;7.668;2022-09-17T05:05:25;13.70;99.90
2389;DHT22;1205;47.984;7.668;2022-09-17T05:07:51;13.70;99.90
2389;DHT22;1205;47.984;7.668;2022-09-17T05:10:19;13.70;99.90
2389;DHT22;1205;47.984;7.668;2022-09-17T05:12:51;13.70;99.90
2389;DHT22;1205;47.984;7.668;2022-09-17T05:15:17;13.80;99.90
2389;DHT22;1205;47.984;7.668;2022-09-17T05:17:44;13.80;99.90
2389;DHT22;1205;47.984;7.668;2022-09-17T05:20:10;13.80;99.90
2389;DHT22;1205;47.984;7.668;2022-09-17T05:22:41;13.70;99.90
2389;DHT22;1205;47.984;7.668;2022-09-17T05:25:07;13.80;99.90
2389;DHT22;1205;47.984;7.668;2022-09-17T05:27:32;13.90;99.90
2389;DHT22;1205;47.984;7.668;2022-09-17T05:29:58;13.80;99.90
2389;DHT22;1205;47.984;7.668;2022-09-17T05:32:23;13.70;99.90
2389;DHT22;1205;47.984;7.668;2022-09-17T05:34:49;13.60;99.90
2389;DHT22;1205;47.984;7.668;2022-09-17T05:37:14;13.60;99.90
2389;DHT22;1205;47.984;7.668;2022-09-17T05:39:40;13.40;99.90
2389;DHT22;1205;47.984;7.668;2022-09-17T05:42:06;13.40;99.90
2389;DHT22;1205;47.984;7.668;2022-09-17T05:44:31;13.50;99.90
2389;DHT22;1205;47.984;7.668;2022-09-17T05:46:57;13.70;99.90
2389;DHT22;1205;47.984;7.668;2022-09-17T05:49:23;13.20;99.90
2389;DHT22;1205;47.984;7.668;2022-09-17T05:51:49;13.20;99.90
2389;DHT22;1205;47.984;7.668;2022-09-17T05:54:16;13.40;99.90
2389;DHT22;1205;47.984;7.668;2022-09-17T05:56:41;13.40;99.90
2389;DHT22;1205;47.984;7.668;2022-09-17T05:59:07;13.40;99.90
2389;DHT22;1205;47.984;7.668;2022-09-17T06:01:32;13.60;99.90
2389;DHT22;1205;47.984;7.668;2022-09-17T06:03:58;13.60;99.90
2389;DHT22;1205;47.984;7.668;2022-09-17T06:06:27;13.50;99.90
2389;DHT22;1205;47.984;7.668;2022-09-17T06:08:55;13.60;99.90
2389;DHT22;1205;47.984;7.668;2022-09-17T06:11:20;13.50;99.90
2389;DHT22;1205;47.984;7.668;2022-09-17T06:13:46;13.60;99.90
2389;DHT22;1205;47.984;7.668;2022-09-17T06:16:12;13.60;99.90
2389;DHT22;1205;47.984;7.668;2022-09-17T06:18:37;13.80;99.90
2389;DHT22;1205;47.984;7.668;2022-09-17T06:21:03;13.90;99.90
2389;DHT22;1205;47.984;7.668;2022-09-17T06:23:33;13.80;99.90
2389;DHT22;1205;47.984;7.668;2022-09-17T06:26:00;14.00;99.90
2389;DHT22;1205;47.984;7.668;2022-09-17T06:28:27;14.10;99.90
2389;DHT22;1205;47.984;7.668;2022-09-17T06:30:53;14.20;99.90
2389;DHT22;1205;47.984;7.668;2022-09-17T06:33:21;14.30;99.90
2389;DHT22;1205;47.984;7.668;2022-09-17T06:35:47;14.40;99.90
2389;DHT22;1205;47.984;7.668;2022-09-17T06:38:13;14.40;99.90
2389;DHT22;1205;47.984;7.668;2022-09-17T06:40:39;14.50;99.90
2389;DHT22;1205;47.984;7.668;2022-09-17T06:43:04;14.50;99.90
2389;DHT22;1205;47.984;7.668;2022-09-17T06:45:30;14.60;99.90
2389;DHT22;1205;47.984;7.668;2022-09-17T06:47:56;14.60;99.90
2389;DHT22;1205;47.984;7.668;2022-09-17T06:50:21;14.60;99.90
2389;DHT22;1205;47.984;7.668;2022-09-17T06:52:51;14.50;99.90
2389;DHT22;1205;47.984;7.668;2022-09-17T06:55:18;14.50;99.90
2389;DHT22;1205;47.984;7.668;2022-09-17T06:57:44;14.60;99.90
2389;DHT22;1205;47.984;7.668;2022-09-17T07:00:10;14.60;99.90
2389;DHT22;1205;47.984;7.668;2022-09-17T07:02:36;14.80;99.90
2389;DHT22;1205;47.984;7.668;2022-09-17T07:05:03;14.80;99.90
2389;DHT22;1205;47.984;7.668;2022-09-17T07:07:29;14.70;99.90
2389;DHT22;1205;47.984;7.668;2022-09-17T07:09:55;15.00;99.90
2389;DHT22;1205;47.984;7.668;2022-09-17T07:12:21;15.10;99.90
2389;DHT22;1205;47.984;7.668;2022-09-17T07:14:47;15.10;99.90
2389;DHT22;1205;47.984;7.668;2022-09-17T07:17:13;15.20;99.90
2389;DHT22;1205;47.984;7.668;2022-09-17T07:19:39;15.20;99.90
2389;DHT22;1205;47.984;7.668;2022-09-17T07:22:05;15.30;99.90
2389;DHT22;1205;47.984;7.668;2022-09-17T07:24:30;15.20;99.90
2389;DHT22;1205;47.984;7.668;2022-09-17T07:26:56;15.40;99.90
2389;DHT22;1205;47.984;7.668;2022-09-17T07:29:22;15.40;99.90
2389;DHT22;1205;47.984;7.668;2022-09-17T07:31:51;15.50;99.90
2389;DHT22;1205;47.984;7.668;2022-09-17T07:34:16;15.20;99.90
2389;DHT22;1205;47.984;7.668;2022-09-17T07:36:42;15.20;99.90
2389;DHT22;1205;47.984;7.668;2022-09-17T07:39:09;15.20;99.90
2389;DHT22;1205;47.984;7.668;2022-09-17T07:41:36;15.20;99.90
2389;DHT22;1205;47.984;7.668;2022-09-17T07:44:01;15.10;99.90
2389;DHT22;1205;47.984;7.668;2022-09-17T07:46:27;14.90;99.90
2389;DHT22;1205;47.984;7.668;2022-09-17T07:48:54;14.90;99.90
2389;DHT22;1205;47.984;7.668;2022-09-17T07:51:24;14.80;99.90
2389;DHT22;1205;47.984;7.668;2022-09-17T07:53:51;14.70;99.90
2389;DHT22;1205;47.984;7.668;2022-09-17T07:56:17;15.00;99.90
2389;DHT22;1205;47.984;7.668;2022-09-17T07:58:42;15.10;99.90
2389;DHT22;1205;47.984;7.668;2022-09-17T08:01:10;15.20;99.90
2389;DHT22;1205;47.984;7.668;2022-09-17T08:03:36;15.60;99.90
2389;DHT22;1205;47.984;7.668;2022-09-17T08:06:11;15.70;99.90
2389;DHT22;1205;47.984;7.668;2022-09-17T08:08:38;15.60;99.90
2389;DHT22;1205;47.984;7.668;2022-09-17T08:11:09;15.70;99.90
2389;DHT22;1205;47.984;7.668;2022-09-17T08:13:35;15.30;99.60
2389;DHT22;1205;47.984;7.668;2022-09-17T08:16:03;15.20;99.90
2389;DHT22;1205;47.984;7.668;2022-09-17T08:18:30;15.00;99.60
2389;DHT22;1205;47.984;7.668;2022-09-17T08:20:57;14.70;99.50
2389;DHT22;1205;47.984;7.668;2022-09-17T08:23:24;14.50;99.90
2389;DHT22;1205;47.984;7.668;2022-09-17T08:25:54;14.40;99.90
2389;DHT22;1205;47.984;7.668;2022-09-17T08:28:21;14.20;99.90
2389;DHT22;1205;47.984;7.668;2022-09-17T08:30:47;14.20;99.90
2389;DHT22;1205;47.984;7.668;2022-09-17T08:33:14;14.20;99.90
2389;DHT22;1205;47.984;7.668;2022-09-17T08:35:39;14.40;99.90
2389;DHT22;1205;47.984;7.668;2022-09-17T08:38:05;14.60;99.90
2389;DHT22;1205;47.984;7.668;2022-09-17T08:40:32;14.70;99.90
2389;DHT22;1205;47.984;7.668;2022-09-17T08:43:03;15.00;99.90
2389;DHT22;1205;47.984;7.668;2022-09-17T08:45:30;15.00;99.90
2389;DHT22;1205;47.984;7.668;2022-09-17T08:48:03;15.00;99.30
2389;DHT22;1205;47.984;7.668;2022-09-17T08:50:35;15.20;99.90
2389;DHT22;1205;47.984;7.668;2022-09-17T08:53:33;15.20;99.50
2389;DHT22;1205;47.984;7.668;2022-09-17T08:56:15;15.60;99.90
2389;DHT22;1205;47.984;7.668;2022-09-17T09:05:13;15.80;97.70
2389;DHT22;1205;47.984;7.668;2022-09-17T09:07:48;15.70;97.50
2389;DHT22;1205;47.984;7.668;2022-09-17T09:10:21;15.90;98.80
2389;DHT22;1205;47.984;7.668;2022-09-17T09:12:50;15.70;97.40
2389;DHT22;1205;47.984;7.668;2022-09-17T09:15:32;15.70;96.80
2389;DHT22;1205;47.984;7.668;2022-09-17T09:18:10;15.70;98.40
2389;DHT22;1205;47.984;7.668;2022-09-17T09:23:26;15.90;98.60
2389;DHT22;1205;47.984;7.668;2022-09-17T09:26:00;15.80;98.60
2389;DHT22;1205;47.984;7.668;2022-09-17T09:31:33;15.50;98.90
2389;DHT22;1205;47.984;7.668;2022-09-17T09:34:04;15.50;99.50
2389;DHT22;1205;47.984;7.668;2022-09-17T09:36:32;15.50;98.60
2389;DHT22;1205;47.984;7.668;2022-09-17T09:39:14;15.40;98.80
2389;DHT22;1205;47.984;7.668;2022-09-17T09:41:46;15.50;99.80
2389;DHT22;1205;47.984;7.668;2022-09-17T09:44:15;15.50;99.90
2389;DHT22;1205;47.984;7.668;2022-09-17T10:00:37;15.20;99.90
2389;DHT22;1205;47.984;7.668;2022-09-17T10:03:17;15.20;99.50
2389;DHT22;1205;47.984;7.668;2022-09-17T10:06:04;15.10;98.70
2389;DHT22;1205;47.984;7.668;2022-09-17T10:08:38;15.20;99.70
2389;DHT22;1205;47.984;7.668;2022-09-17T10:13:38;15.50;98.90
2389;DHT22;1205;47.984;7.668;2022-09-17T10:16:24;15.60;99.50
2389;DHT22;1205;47.984;7.668;2022-09-17T10:19:12;15.70;99.00
2389;DHT22;1205;47.984;7.668;2022-09-17T10:21:40;16.00;98.70
2389;DHT22;1205;47.984;7.668;2022-09-17T10:24:23;16.20;98.50
2389;DHT22;1205;47.984;7.668;2022-09-17T10:26:50;16.00;97.30
2389;DHT22;1205;47.984;7.668;2022-09-17T10:29:19;16.00;98.10
2389;DHT22;1205;47.984;7.668;2022-09-17T10:31:53;16.00;97.80
2389;DHT22;1205;47.984;7.668;2022-09-17T10:34:22;15.90;96.50
2389;DHT22;1205;47.984;7.668;2022-09-17T10:36:48;15.90;97.30
2389;DHT22;1205;47.984;7.668;2022-09-17T10:39:34;16.20;97.40
2389;DHT22;1205;47.984;7.668;2022-09-17T10:42:15;16.60;97.20
2389;DHT22;1205;47.984;7.668;2022-09-17T10:44:55;16.80;98.00
2389;DHT22;1205;47.984;7.668;2022-09-17T10:47:35;16.90;98.20
2389;DHT22;1205;47.984;7.668;2022-09-17T10:50:04;17.30;97.90
2389;DHT22;1205;47.984;7.668;2022-09-17T10:52:34;17.50;97.10
2389;DHT22;1205;47.984;7.668;2022-09-17T10:55:21;17.80;96.60
2389;DHT22;1205;47.984;7.668;2022-09-17T11:06:34;17.20;95.60
2389;DHT22;1205;47.984;7.668;2022-09-17T11:09:04;17.40;96.40
2389;DHT22;1205;47.984;7.668;2022-09-17T11:11:39;17.50;94.20
2389;DHT22;1205;47.984;7.668;2022-09-17T11:17:12;17.40;95.40
2389;DHT22;1205;47.984;7.668;2022-09-17T11:19:57;17.30;94.50
2389;DHT22;1205;47.984;7.668;2022-09-17T11:22:53;17.30;94.30
2389;DHT22;1205;47.984;7.668;2022-09-17T11:28:15;17.40;95.30
2389;DHT22;1205;47.984;7.668;2022-09-17T11:35:47;17.30;94.20
2389;DHT22;1205;47.984;7.668;2022-09-17T11:41:07;17.10;94.30
2389;DHT22;1205;47.984;7.668;2022-09-17T11:43:37;17.20;94.60
2389;DHT22;1205;47.984;7.668;2022-09-17T11:48:52;17.00;95.40
2389;DHT22;1205;47.984;7.668;2022-09-17T11:51:42;16.50;95.90
2389;DHT22;1205;47.984;7.668;2022-09-17T11:54:24;16.30;96.80
2389;DHT22;1205;47.984;7.668;2022-09-17T11:56:53;15.90;97.40
2389;DHT22;1205;47.984;7.668;2022-09-17T12:04:56;15.40;99.90
2389;DHT22;1205;47.984;7.668;2022-09-17T12:07:55;15.40;99.90
2389;DHT22;1205;47.984;7.668;2022-09-17T12:11:06;15.40;99.90
2389;DHT22;1205;47.984;7.668;2022-09-17T12:18:47;15.50;99.90
2389;DHT22;1205;47.984;7.668;2022-09-17T12:21:18;15.60;99.90
2389;DHT22;1205;47.984;7.668;2022-09-17T12:24:23;15.70;99.90
2389;DHT22;1205;47.984;7.668;2022-09-17T12:40:55;15.60;99.60
2389;DHT22;1205;47.984;7.668;2022-09-17T12:43:29;15.50;99.90
2389;DHT22;1205;47.984;7.668;2022-09-17T12:51:16;15.40;99.40
2389;DHT22;1205;47.984;7.668;2022-09-17T12:59:17;15.70;97.80
2389;DHT22;1205;47.984;7.668;2022-09-17T13:02:03;15.70;96.30
2389;DHT22;1205;47.984;7.668;2022-09-17T13:04:38;15.80;95.80
2389;DHT22;1205;47.984;7.668;2022-09-17T13:12:50;15.70;95.00
2389;DHT22;1205;47.984;7.668;2022-09-17T13:18:33;15.80;94.60
2389;DHT22;1205;47.984;7.668;2022-09-17T13:21:12;15.90;93.00
2389;DHT22;1205;47.984;7.668;2022-09-17T13:23:44;16.00;92.90
2389;DHT22;1205;47.984;7.668;2022-09-17T13:26:12;16.10;92.80
2389;DHT22;1205;47.984;7.668;2022-09-17T13:28:43;16.10;93.50
2389;DHT22;1205;47.984;7.668;2022-09-17T13:31:10;16.20;92.00
2389;DHT22;1205;47.984;7.668;2022-09-17T13:36:50;16.40;91.90
2389;DHT22;1205;47.984;7.668;2022-09-17T13:39:39;16.40;91.40
2389;DHT22;1205;47.984;7.668;2022-09-17T13:42:27;16.40;90.90
2389;DHT22;1205;47.984;7.668;2022-09-17T13:45:13;16.30;91.60
2389;DHT22;1205;47.984;7.668;2022-09-17T13:50:31;16.40;91.80
2389;DHT22;1205;47.984;7.668;2022-09-17T13:53:04;16.40;91.80
2389;DHT22;1205;47.984;7.668;2022-09-17T13:55:40;16.30;91.80
2389;DHT22;1205;47.984;7.668;2022-09-17T13:58:20;16.30;92.60
2389;DHT22;1205;47.984;7.668;2022-09-17T14:11:37;16.40;92.50
2389;DHT22;1205;47.984;7.668;2022-09-17T14:24:23;16.60;91.50
2389;DHT22;1205;47.984;7.668;2022-09-17T14:35:10;16.30;91.20
2389;DHT22;1205;47.984;7.668;2022-09-17T14:37:39;16.30;91.10
2389;DHT22;1205;47.984;7.668;2022-09-17T14:40:10;16.30;92.10
2389;DHT22;1205;47.984;7.668;2022-09-17T14:42:39;16.30;93.40
2389;DHT22;1205;47.984;7.668;2022-09-17T14:45:16;16.10;93.80
2389;DHT22;1205;47.984;7.668;2022-09-17T14:47:43;15.80;94.20
2389;DHT22;1205;47.984;7.668;2022-09-17T14:50:18;15.70;93.60
2389;DHT22;1205;47.984;7.668;2022-09-17T14:52:49;15.90;93.80
2389;DHT22;1205;47.984;7.668;2022-09-17T14:55:27;15.90;92.80
2389;DHT22;1205;47.984;7.668;2022-09-17T14:57:56;15.90;92.40
2389;DHT22;1205;47.984;7.668;2022-09-17T15:00:32;15.80;92.00
2389;DHT22;1205;47.984;7.668;2022-09-17T15:02:58;15.70;92.30
2389;DHT22;1205;47.984;7.668;2022-09-17T15:05:33;15.60;92.70
2389;DHT22;1205;47.984;7.668;2022-09-17T15:13:16;15.70;92.60
2389;DHT22;1205;47.984;7.668;2022-09-17T15:16:02;15.80;92.90
2389;DHT22;1205;47.984;7.668;2022-09-17T15:18:35;15.70;92.40
2389;DHT22;1205;47.984;7.668;2022-09-17T15:21:04;15.70;92.20
2389;DHT22;1205;47.984;7.668;2022-09-17T15:23:32;15.70;92.70
2389;DHT22;1205;47.984;7.668;2022-09-17T15:26:00;15.70;92.40
2389;DHT22;1205;47.984;7.668;2022-09-17T15:28:33;15.70;92.80
2389;DHT22;1205;47.984;7.668;2022-09-17T15:30:59;15.70;92.80
2389;DHT22;1205;47.984;7.668;2022-09-17T15:33:26;15.70;93.50
2389;DHT22;1205;47.984;7.668;2022-09-17T15:36:07;15.70;93.20
2389;DHT22;1205;47.984;7.668;2022-09-17T15:38:37;15.70;92.80
2389;DHT22;1205;47.984;7.668;2022-09-17T15:41:28;15.60;93.00
2389;DHT22;1205;47.984;7.668;2022-09-17T15:44:12;15.60;93.20
2389;DHT22;1205;47.984;7.668;2022-09-17T15:46:38;15.60;93.90
2389;DHT22;1205;47.984;7.668;2022-09-17T15:49:31;15.60;93.60
2389;DHT22;1205;47.984;7.668;2022-09-17T15:52:28;15.50;93.60
2389;DHT22;1205;47.984;7.668;2022-09-17T15:54:56;15.40;93.10
2389;DHT22;1205;47.984;7.668;2022-09-17T15:57:23;15.30;93.80
2389;DHT22;1205;47.984;7.668;2022-09-17T15:59:49;15.20;93.90
2389;DHT22;1205;47.984;7.668;2022-09-17T16:02:27;15.20;93.80
2389;DHT22;1205;47.984;7.668;2022-09-17T16:07:41;15.20;94.30
2389;DHT22;1205;47.984;7.668;2022-09-17T16:10:08;15.20;94.30
2389;DHT22;1205;47.984;7.668;2022-09-17T16:12:34;15.20;94.60
2389;DHT22;1205;47.984;7.668;2022-09-17T16:15:00;15.10;94.30
2389;DHT22;1205;47.984;7.668;2022-09-17T16:19:53;15.10;94.40
2389;DHT22;1205;47.984;7.668;2022-09-17T16:22:20;15.00;94.30
2389;DHT22;1205;47.984;7.668;2022-09-17T16:24:45;15.00;94.40
2389;DHT22;1205;47.984;7.668;2022-09-17T16:27:26;15.00;94.70
2389;DHT22;1205;47.984;7.668;2022-09-17T16:30:05;15.00;95.00
2389;DHT22;1205;47.984;7.668;2022-09-17T16:32:33;14.90;94.80
2389;DHT22;1205;47.984;7.668;2022-09-17T16:34:59;15.00;95.10
2389;DHT22;1205;47.984;7.668;2022-09-17T16:37:24;15.00;95.40
2389;DHT22;1205;47.984;7.668;2022-09-17T16:39:50;14.90;95.60
2389;DHT22;1205;47.984;7.668;2022-09-17T16:42:17;14.90;95.70
2389;DHT22;1205;47.984;7.668;2022-09-17T16:44:42;14.90;95.80
2389;DHT22;1205;47.984;7.668;2022-09-17T16:47:08;14.90;95.90
2389;DHT22;1205;47.984;7.668;2022-09-17T16:49:34;14.80;96.00
2389;DHT22;1205;47.984;7.668;2022-09-17T16:51:59;14.80;96.30
2389;DHT22;1205;47.984;7.668;2022-09-17T16:54:25;14.80;97.90
2389;DHT22;1205;47.984;7.668;2022-09-17T16:56:50;14.90;96.40
2389;DHT22;1205;47.984;7.668;2022-09-17T16:59:16;14.80;95.90
2389;DHT22;1205;47.984;7.668;2022-09-17T17:01:42;14.80;96.30
2389;DHT22;1205;47.984;7.668;2022-09-17T17:04:08;14.70;95.90
2389;DHT22;1205;47.984;7.668;2022-09-17T17:06:33;14.70;96.40
2389;DHT22;1205;47.984;7.668;2022-09-17T17:08:59;14.70;96.90
2389;DHT22;1205;47.984;7.668;2022-09-17T17:11:26;14.60;96.80
2389;DHT22;1205;47.984;7.668;2022-09-17T17:13:53;14.60;97.40
2389;DHT22;1205;47.984;7.668;2022-09-17T17:16:20;14.60;98.30
2389;DHT22;1205;47.984;7.668;2022-09-17T17:18:46;14.50;98.60
2389;DHT22;1205;47.984;7.668;2022-09-17T17:21:13;14.50;99.00
2389;DHT22;1205;47.984;7.668;2022-09-17T17:23:39;14.40;99.90
2389;DHT22;1205;47.984;7.668;2022-09-17T17:26:05;14.40;99.20
2389;DHT22;1205;47.984;7.668;2022-09-17T17:28:34;14.40;99.90
2389;DHT22;1205;47.984;7.668;2022-09-17T17:31:01;14.30;99.90
2389;DHT22;1205;47.984;7.668;2022-09-17T17:33:27;14.30;99.90
2389;DHT22;1205;47.984;7.668;2022-09-17T17:35:53;14.30;99.90
2389;DHT22;1205;47.984;7.668;2022-09-17T17:38:18;14.20;99.90
2389;DHT22;1205;47.984;7.668;2022-09-17T17:40:44;14.10;99.90
2389;DHT22;1205;47.984;7.668;2022-09-17T17:43:10;14.00;99.90
2389;DHT22;1205;47.984;7.668;2022-09-17T17:45:37;13.90;99.90
2389;DHT22;1205;47.984;7.668;2022-09-17T17:48:03;13.80;99.90
2389;DHT22;1205;47.984;7.668;2022-09-17T17:50:29;13.70;99.90
2389;DHT22;1205;47.984;7.668;2022-09-17T17:52:55;13.70;99.90
2389;DHT22;1205;47.984;7.668;2022-09-17T17:55:21;13.70;99.90
2389;DHT22;1205;47.984;7.668;2022-09-17T17:57:46;13.60;99.70
2389;DHT22;1205;47.984;7.668;2022-09-17T18:00:13;13.60;99.80
2389;DHT22;1205;47.984;7.668;2022-09-17T18:02:40;13.70;99.70
2389;DHT22;1205;47.984;7.668;2022-09-17T18:05:06;13.70;99.50
2389;DHT22;1205;47.984;7.668;2022-09-17T18:07:31;13.70;99.80
2389;DHT22;1205;47.984;7.668;2022-09-17T18:09:57;13.80;99.80
2389;DHT22;1205;47.984;7.668;2022-09-17T18:12:23;13.80;99.60
2389;DHT22;1205;47.984;7.668;2022-09-17T18:14:49;13.70;99.90
2389;DHT22;1205;47.984;7.668;2022-09-17T18:17:14;13.70;99.90
2389;DHT22;1205;47.984;7.668;2022-09-17T18:19:40;13.50;99.90
2389;DHT22;1205;47.984;7.668;2022-09-17T18:22:05;13.50;99.90
2389;DHT22;1205;47.984;7.668;2022-09-17T18:24:31;13.40;99.90
2389;DHT22;1205;47.984;7.668;2022-09-17T18:26:56;13.40;99.90
2389;DHT22;1205;47.984;7.668;2022-09-17T18:29:22;13.30;99.90
2389;DHT22;1205;47.984;7.668;2022-09-17T18:31:47;13.30;99.90
2389;DHT22;1205;47.984;7.668;2022-09-17T18:34:14;13.30;99.90
2389;DHT22;1205;47.984;7.668;2022-09-17T18:36:41;13.40;99.90
2389;DHT22;1205;47.984;7.668;2022-09-17T18:39:09;13.30;99.90
2389;DHT22;1205;47.984;7.668;2022-09-17T18:41:37;13.30;99.90
2389;DHT22;1205;47.984;7.668;2022-09-17T18:44:08;13.40;99.90
2389;DHT22;1205;47.984;7.668;2022-09-17T18:46:33;13.40;99.90
2389;DHT22;1205;47.984;7.668;2022-09-17T18:49:00;13.30;99.90
2389;DHT22;1205;47.984;7.668;2022-09-17T18:51:26;13.30;99.90
2389;DHT22;1205;47.984;7.668;2022-09-17T18:53:53;13.30;99.90
2389;DHT22;1205;47.984;7.668;2022-09-17T18:56:21;13.30;99.90
2389;DHT22;1205;47.984;7.668;2022-09-17T18:58:49;13.30;99.90
2389;DHT22;1205;47.984;7.668;2022-09-17T19:01:15;13.30;99.90
2389;DHT22;1205;47.984;7.668;2022-09-17T19:03:41;13.30;99.90
2389;DHT22;1205;47.984;7.668;2022-09-17T19:06:09;13.30;99.90
2389;DHT22;1205;47.984;7.668;2022-09-17T19:08:36;13.30;99.90
2389;DHT22;1205;47.984;7.668;2022-09-17T19:11:02;13.30;99.90
2389;DHT22;1205;47.984;7.668;2022-09-17T19:16:01;13.20;99.90
2389;DHT22;1205;47.984;7.668;2022-09-17T19:18:27;13.30;99.90
2389;DHT22;1205;47.984;7.668;2022-09-17T19:21:01;13.20;99.90
2389;DHT22;1205;47.984;7.668;2022-09-17T19:23:27;13.20;99.90
2389;DHT22;1205;47.984;7.668;2022-09-17T19:25:53;13.20;99.90
2389;DHT22;1205;47.984;7.668;2022-09-17T19:28:19;13.20;99.90
2389;DHT22;1205;47.984;7.668;2022-09-17T19:30:46;13.20;99.90
2389;DHT22;1205;47.984;7.668;2022-09-17T19:33:11;13.20;99.90